Terminal Aerodrome Forecast
Issued by NWS

Home | Current Version | Previous Version | Graphics & Text | Print | Product List | Glossary Off
Versions: 1 2 3 4 5 6 7 8 9 10 11 12

837
FTUS43 KICT 211720
TAFHUT
TAF
KHUT 211720Z 2118/2218 20015G23KT P6SM SKC
     FM212000 20015G23KT P6SM SCT060
     FM220100 17008KT P6SM SKC
     FM220800 19010KT P6SM SKC WS020/21040KT
     FM221200 20009KT P6SM SKC=

USA.gov is the U.S. government's official web portal to all federal, state and local government web resources and services.